Time;durP1;ratioP1;P1;durP2;ratioP2;P2;SDS_P1;SDS_P2;PMS_P1;PMS_P2;Temp;Humidity;BMP_temperature;BMP_pressure;BME280_temperature;BME280_humidity;BME280_pressure;Samples;Min_cycle;Max_cycle;Signal;HPM_P1;HPM_P2
2022/05/12 00:01:17;;;;;;;4.38;1.30;;;9.60;99.90;;;;;;4980948;28;20026;-91
2022/05/12 00:03:42;;;;;;;3.00;1.25;;;9.60;99.90;;;;;;4998389;28;20034;-91
2022/05/12 00:06:08;;;;;;;5.43;1.25;;;9.60;99.90;;;;;;4981533;28;20046;-92
2022/05/12 00:08:35;;;;;;;6.13;1.23;;;9.50;99.90;;;;;;4976680;28;20411;-93
2022/05/12 00:11:01;;;;;;;4.50;1.73;;;9.50;99.90;;;;;;4980738;28;20052;-91
2022/05/12 00:13:27;;;;;;;7.25;1.73;;;9.50;99.90;;;;;;4984189;28;20042;-91
2022/05/12 00:15:54;;;;;;;3.50;1.15;;;9.50;99.90;;;;;;4996816;28;20022;-91
2022/05/12 00:18:20;;;;;;;4.60;1.50;;;9.50;99.90;;;;;;4988926;28;20039;-93
2022/05/12 00:20:45;;;;;;;4.25;1.42;;;9.40;99.90;;;;;;4976469;28;20035;-92
2022/05/12 00:23:13;;;;;;;5.57;1.45;;;9.40;99.90;;;;;;4980631;28;20026;-91
2022/05/12 00:25:40;;;;;;;3.58;1.48;;;9.40;99.90;;;;;;4971065;28;20125;-91
2022/05/12 00:28:06;;;;;;;4.45;2.05;;;9.40;99.90;;;;;;4972429;28;20057;-93
2022/05/12 00:30:32;;;;;;;8.13;2.50;;;9.40;99.90;;;;;;4975267;28;20017;-91
2022/05/12 00:32:58;;;;;;;3.25;1.30;;;9.40;99.90;;;;;;4984879;28;20379;-91
2022/05/12 00:35:24;;;;;;;4.43;1.33;;;9.30;99.90;;;;;;4978303;28;20046;-90
2022/05/12 00:37:50;;;;;;;6.13;2.80;;;9.30;99.90;;;;;;4973751;28;20030;-93
2022/05/12 00:40:16;;;;;;;11.30;1.90;;;9.30;99.90;;;;;;4970410;28;20025;-91
2022/05/12 00:43:21;;;;;;;3.17;1.55;;;9.30;99.90;;;;;;4970799;28;20115;-92
2022/05/12 00:45:49;;;;;;;4.07;1.30;;;9.20;99.90;;;;;;4971035;28;20428;-91
2022/05/12 00:48:14;;;;;;;3.10;1.38;;;9.20;99.90;;;;;;4984759;28;20045;-93
2022/05/12 00:50:44;;;;;;;4.80;1.33;;;9.20;99.90;;;;;;4972803;28;20105;-91
2022/05/12 00:53:12;;;;;;;7.80;1.80;;;9.20;99.90;;;;;;4971681;28;20038;-91
2022/05/12 00:55:42;;;;;;;6.13;1.33;;;9.20;99.90;;;;;;4970389;28;20030;-93
2022/05/12 00:58:12;;;;;;;4.03;1.38;;;9.20;99.90;;;;;;4976704;28;20041;-92
2022/05/12 01:00:38;;;;;;;;;;;9.20;99.90;;;;;;4976900;28;20054;-92
2022/05/12 01:03:10;;;;;;;4.38;1.65;;;9.20;99.90;;;;;;4976715;28;19933;-92
2022/05/12 01:05:37;;;;;;;8.05;1.80;;;9.20;99.90;;;;;;4976499;28;20055;-92
2022/05/12 01:08:03;;;;;;;6.45;1.40;;;9.20;99.90;;;;;;4974071;28;20031;-90
2022/05/12 01:10:29;;;;;;;3.75;1.35;;;9.20;99.90;;;;;;4967046;28;20033;-93
2022/05/12 01:12:55;;;;;;;8.43;1.80;;;9.20;99.90;;;;;;4959915;28;20125;-92
2022/05/12 01:15:24;;;;;;;5.53;1.63;;;9.20;99.90;;;;;;4976855;28;20026;-91
2022/05/12 01:17:59;;;;;;;6.35;1.60;;;9.20;99.90;;;;;;4959236;28;20118;-92
2022/05/12 01:20:25;;;;;;;6.20;1.63;;;9.10;99.90;;;;;;4959501;28;20033;-91
2022/05/12 01:23:05;;;;;;;5.03;1.90;;;9.20;99.90;;;;;;4959419;28;20118;-91
2022/05/12 01:25:31;;;;;;;3.28;1.48;;;9.10;99.90;;;;;;4975742;28;20034;-90
2022/05/12 01:27:57;;;;;;;3.20;1.60;;;9.10;99.90;;;;;;4976362;28;20049;-91
2022/05/12 01:30:24;;;;;;;4.70;1.60;;;9.10;99.90;;;;;;4959650;28;20023;-92
2022/05/12 01:32:51;;;;;;;4.03;1.50;;;9.10;99.90;;;;;;4961386;28;20023;-93
2022/05/12 01:35:24;;;;;;;7.35;1.70;;;9.10;99.90;;;;;;4960628;28;20620;-92
2022/05/12 01:37:50;;;;;;;5.90;1.80;;;9.00;99.90;;;;;;4977366;28;20472;-91
2022/05/12 01:40:20;;;;;;;5.35;1.77;;;9.10;99.90;;;;;;4960046;28;20097;-89
2022/05/12 01:42:47;;;;;;;4.68;2.33;;;9.00;99.90;;;;;;4976572;28;20027;-93
2022/05/12 01:45:13;;;;;;;5.25;1.77;;;9.00;99.90;;;;;;4959896;28;20088;-92
2022/05/12 01:47:40;;;;;;;6.60;1.65;;;9.00;99.90;;;;;;4959741;28;20126;-91
2022/05/12 01:50:07;;;;;;;4.60;1.48;;;8.90;99.90;;;;;;4991411;28;20027;-90
2022/05/12 01:52:33;;;;;;;8.90;2.10;;;8.80;99.90;;;;;;5002544;28;20022;-89
2022/05/12 01:54:59;;;;;;;4.20;1.40;;;8.80;99.90;;;;;;5005474;28;20022;-93
2022/05/12 01:57:28;;;;;;;10.23;1.98;;;8.70;99.90;;;;;;4997680;28;20041;-91
2022/05/12 01:59:53;;;;;;;2.95;1.75;;;8.70;99.90;;;;;;4996646;28;20041;-90
2022/05/12 02:02:19;;;;;;;3.97;1.40;;;8.70;99.90;;;;;;4995447;28;20059;-91
2022/05/12 02:04:47;;;;;;;4.93;1.70;;;8.70;99.90;;;;;;4996073;28;20065;-91
2022/05/12 02:07:13;;;;;;;6.68;1.80;;;8.70;99.90;;;;;;4994974;28;20022;-90
2022/05/12 02:09:39;;;;;;;8.30;1.63;;;8.70;99.90;;;;;;4995462;28;20026;-90
2022/05/12 02:12:05;;;;;;;7.03;1.80;;;8.70;99.90;;;;;;4994461;28;20049;-91
2022/05/12 02:14:31;;;;;;;7.88;1.73;;;8.70;99.90;;;;;;4994402;28;20038;-89
2022/05/12 02:16:57;;;;;;;3.30;1.60;;;8.80;99.90;;;;;;4991549;28;20022;-91
2022/05/12 02:19:23;;;;;;;4.75;1.92;;;8.80;99.90;;;;;;4994595;28;20161;-90
2022/05/12 02:21:49;;;;;;;6.13;1.90;;;8.80;99.90;;;;;;4995320;28;20042;-91
2022/05/12 02:24:15;;;;;;;3.70;1.38;;;8.80;99.90;;;;;;4994479;28;20503;-92
2022/05/12 02:26:41;;;;;;;2.65;1.40;;;8.80;99.90;;;;;;4994808;28;20037;-94
2022/05/12 02:29:06;;;;;;;6.75;1.88;;;8.80;99.90;;;;;;4994727;28;20391;-90
2022/05/12 02:31:32;;;;;;;6.22;1.90;;;8.70;99.90;;;;;;4995606;28;20034;-93
2022/05/12 02:34:00;;;;;;;6.88;1.80;;;8.70;99.90;;;;;;4994524;28;20097;-92
2022/05/12 02:36:26;;;;;;;4.97;1.98;;;8.70;99.90;;;;;;4995783;28;20502;-91
2022/05/12 02:38:51;;;;;;;3.85;1.55;;;8.70;99.90;;;;;;5007425;28;20023;-90
2022/05/12 02:41:17;;;;;;;2.63;1.63;;;8.70;99.90;;;;;;4997471;28;20042;-93
2022/05/12 02:43:42;;;;;;;3.10;1.70;;;8.70;99.90;;;;;;4994074;28;20038;-92
2022/05/12 02:46:10;;;;;;;3.83;1.60;;;8.70;99.90;;;;;;4994176;28;20033;-92
2022/05/12 02:48:42;;;;;;;6.22;1.52;;;8.70;99.90;;;;;;4990333;28;20053;-93
2022/05/12 02:51:08;;;;;;;4.65;1.40;;;8.60;99.90;;;;;;4985672;28;20027;-91
2022/05/12 02:53:34;;;;;;;3.40;1.60;;;8.60;99.90;;;;;;4984637;28;20034;-93
2022/05/12 02:56:01;;;;;;;2.35;1.10;;;8.70;99.90;;;;;;4985745;28;20027;-91
2022/05/12 02:58:28;;;;;;;7.43;2.13;;;8.70;99.90;;;;;;4984780;28;20050;-91
2022/05/12 03:00:54;;;;;;;3.25;1.20;;;8.80;99.90;;;;;;4992203;28;20038;-92
2022/05/12 03:03:20;;;;;;;6.78;1.25;;;8.70;99.90;;;;;;4990535;28;20031;-91
2022/05/12 03:05:46;;;;;;;5.30;1.35;;;8.70;99.90;;;;;;4984382;28;20027;-92
2022/05/12 03:08:12;;;;;;;4.40;1.75;;;8.80;99.90;;;;;;4986297;28;20019;-91
2022/05/12 03:10:38;;;;;;;4.75;1.73;;;8.80;99.90;;;;;;4971989;28;20039;-92
2022/05/12 03:13:05;;;;;;;4.03;1.50;;;8.80;99.90;;;;;;4998297;28;20025;-92
2022/05/12 03:15:32;;;;;;;4.75;1.23;;;8.80;99.90;;;;;;4990604;28;20030;-91
2022/05/12 03:17:58;;;;;;;4.45;1.27;;;8.80;99.90;;;;;;4984653;28;20126;-89
2022/05/12 03:20:27;;;;;;;5.32;1.30;;;8.80;99.90;;;;;;4986579;28;20026;-92
2022/05/12 03:22:53;;;;;;;3.08;1.52;;;8.80;99.90;;;;;;4985481;28;20030;-91
2022/05/12 03:25:20;;;;;;;6.60;1.33;;;8.80;99.90;;;;;;4987377;28;20042;-92
2022/05/12 03:27:46;;;;;;;7.15;1.30;;;8.70;99.90;;;;;;4987048;28;20033;-93
2022/05/12 03:30:18;;;;;;;7.15;1.40;;;8.70;99.90;;;;;;4988897;28;20018;-92
2022/05/12 03:32:44;;;;;;;4.03;1.50;;;8.70;99.90;;;;;;4985466;28;20078;-92
2022/05/12 03:35:11;;;;;;;4.80;1.80;;;8.70;99.90;;;;;;4989015;28;20545;-92
2022/05/12 03:37:38;;;;;;;8.63;1.48;;;8.70;99.90;;;;;;4991374;28;20487;-90
2022/05/12 03:40:05;;;;;;;5.57;1.50;;;8.70;99.90;;;;;;4987479;28;20113;-91
2022/05/12 03:42:31;;;;;;;6.88;1.70;;;8.70;99.90;;;;;;4988032;28;20054;-91
2022/05/12 03:44:59;;;;;;;3.97;1.35;;;8.80;99.90;;;;;;4990260;28;20042;-91
2022/05/12 03:47:34;;;;;;;6.75;1.52;;;8.80;99.90;;;;;;4986297;28;20038;-91
2022/05/12 03:50:03;;;;;;;3.63;1.27;;;8.80;99.90;;;;;;4988793;28;20170;-89
2022/05/12 03:52:30;;;;;;;5.47;1.20;;;8.80;99.90;;;;;;4996213;28;20483;-91
2022/05/12 03:54:56;;;;;;;5.25;1.50;;;8.80;99.90;;;;;;4997910;28;20018;-91
2022/05/12 03:57:23;;;;;;;5.57;1.60;;;8.90;99.90;;;;;;4998087;28;20034;-90
2022/05/12 03:59:50;;;;;;;3.83;1.60;;;8.90;99.90;;;;;;4999735;28;20029;-93
2022/05/12 04:02:17;;;;;;;5.95;1.55;;;8.90;99.90;;;;;;4997635;28;20037;-91
2022/05/12 04:04:43;;;;;;;9.43;2.20;;;8.90;99.90;;;;;;4997136;28;20105;-91
2022/05/12 04:07:11;;;;;;;4.63;1.60;;;8.90;99.90;;;;;;4998096;28;20486;-90
2022/05/12 04:09:38;;;;;;;5.60;1.77;;;8.90;99.90;;;;;;4997410;28;20037;-91
2022/05/12 04:12:05;;;;;;;3.53;1.60;;;9.00;99.90;;;;;;4997713;28;20023;-90
2022/05/12 04:14:32;;;;;;;9.68;2.78;;;9.00;99.90;;;;;;4997374;28;20125;-90
2022/05/12 04:16:59;;;;;;;9.90;1.48;;;9.00;99.90;;;;;;4997857;28;20022;-92
2022/05/12 04:19:26;;;;;;;6.82;1.92;;;9.00;99.90;;;;;;4998054;28;20100;-91
2022/05/12 04:21:52;;;;;;;5.25;1.88;;;9.00;99.90;;;;;;4997679;28;20030;-93
2022/05/12 04:24:19;;;;;;;7.40;1.83;;;9.00;99.90;;;;;;4997501;28;20038;-91
2022/05/12 04:26:46;;;;;;;5.07;2.03;;;9.00;99.90;;;;;;5000544;28;20097;-91
2022/05/12 04:29:12;;;;;;;3.13;1.30;;;8.90;99.90;;;;;;5014233;28;20015;-90
2022/05/12 04:31:38;;;;;;;6.43;2.00;;;8.90;99.90;;;;;;5013848;28;20022;-91
2022/05/12 04:36:48;;;;;;;4.30;1.27;;;9.00;99.90;;;;;;5004443;28;20058;-92
2022/05/12 04:39:14;;;;;;;5.57;1.90;;;9.00;99.90;;;;;;5011222;28;20018;-92
2022/05/12 04:41:40;;;;;;;7.03;1.85;;;9.00;99.90;;;;;;5011203;28;20027;-89
2022/05/12 04:44:06;;;;;;;10.02;1.70;;;9.10;99.90;;;;;;5017643;28;20041;-89
2022/05/12 04:46:34;;;;;;;5.55;2.00;;;9.10;99.90;;;;;;5017663;28;20014;-88
2022/05/12 04:49:01;;;;;;;6.85;2.20;;;9.10;99.90;;;;;;5018891;28;20041;-91
2022/05/12 04:51:26;;;;;;;7.55;1.90;;;9.10;99.90;;;;;;5003663;28;20637;-89
2022/05/12 04:53:52;;;;;;;5.47;2.25;;;9.10;99.90;;;;;;5001910;28;20030;-92
2022/05/12 04:56:18;;;;;;;7.20;2.22;;;9.10;99.90;;;;;;4997441;28;20022;-92
2022/05/12 04:58:44;;;;;;;8.40;2.50;;;9.10;99.90;;;;;;5000562;28;20049;-92
2022/05/12 05:01:10;;;;;;;16.10;2.83;;;9.10;99.90;;;;;;5001068;28;20450;-91
2022/05/12 05:03:35;;;;;;;9.30;3.17;;;9.10;99.90;;;;;;5000606;28;20053;-92
2022/05/12 05:06:01;;;;;;;10.18;2.60;;;9.10;99.90;;;;;;4998602;28;20120;-91
2022/05/12 05:08:27;;;;;;;7.85;2.20;;;9.10;99.90;;;;;;4998398;28;20060;-89
2022/05/12 05:10:53;;;;;;;8.48;2.67;;;9.10;99.90;;;;;;4998353;28;20087;-91
2022/05/12 05:13:21;;;;;;;7.63;2.45;;;9.10;99.90;;;;;;4998024;28;20033;-91
2022/05/12 05:15:48;;;;;;;4.18;1.98;;;9.10;99.90;;;;;;4998605;28;20025;-93
2022/05/12 05:18:16;;;;;;;7.50;2.30;;;9.10;99.90;;;;;;4997723;28;20018;-90
2022/05/12 05:20:43;;;;;;;9.25;3.33;;;9.10;99.90;;;;;;4997757;28;20038;-92
2022/05/12 05:23:09;;;;;;;10.40;2.90;;;9.10;99.90;;;;;;4998754;28;20041;-90
2022/05/12 05:25:35;;;;;;;11.20;3.10;;;9.10;99.90;;;;;;4997930;28;20119;-90
2022/05/12 05:28:01;;;;;;;7.22;2.22;;;9.10;99.90;;;;;;4997493;28;20018;-93
2022/05/12 05:30:30;;;;;;;5.13;2.45;;;9.20;99.90;;;;;;4997023;28;20121;-92
2022/05/12 05:32:55;;;;;;;6.75;2.45;;;9.20;99.90;;;;;;4997027;28;20399;-91
2022/05/12 05:35:23;;;;;;;5.93;2.33;;;9.20;99.90;;;;;;4997043;28;20025;-92
2022/05/12 05:37:50;;;;;;;6.45;2.20;;;9.20;99.90;;;;;;4997724;28;20033;-93
2022/05/12 05:40:17;;;;;;;11.88;3.67;;;9.20;99.90;;;;;;4996440;28;20526;-88
2022/05/12 05:42:44;;;;;;;10.40;3.35;;;9.30;99.90;;;;;;4997486;28;20076;-90
2022/05/12 05:45:12;;;;;;;6.10;3.30;;;9.30;99.90;;;;;;5022093;28;20111;-91
2022/05/12 05:47:44;;;;;;;8.02;2.20;;;9.30;99.90;;;;;;5012769;28;20022;-90
2022/05/12 05:50:12;;;;;;;4.78;1.90;;;9.40;99.90;;;;;;5008540;28;20045;-92
2022/05/12 05:55:22;;;;;;;8.88;2.63;;;9.40;99.90;;;;;;5015483;28;20538;-92
2022/05/12 05:57:48;;;;;;;5.85;2.45;;;9.50;99.90;;;;;;4997536;28;20026;-92
2022/05/12 06:00:15;;;;;;;6.70;3.45;;;9.50;99.90;;;;;;4995518;28;20029;-91
2022/05/12 06:02:41;;;;;;;4.50;2.47;;;9.60;99.90;;;;;;4998100;28;20542;-92
2022/05/12 06:05:07;;;;;;;4.53;2.20;;;9.60;99.90;;;;;;4998652;28;20038;-93
2022/05/12 06:07:38;;;;;;;10.75;2.63;;;9.60;99.90;;;;;;5016050;28;20542;-90
2022/05/12 06:10:06;;;;;;;8.95;2.53;;;9.70;99.90;;;;;;4996664;28;20038;-91
2022/05/12 06:12:33;;;;;;;10.98;2.22;;;9.70;99.90;;;;;;5020463;28;20025;-92
2022/05/12 06:14:59;;;;;;;9.48;2.55;;;9.70;99.90;;;;;;5012327;28;20022;-94
2022/05/12 06:17:26;;;;;;;8.02;2.47;;;9.70;99.90;;;;;;5009261;28;20109;-94
2022/05/12 06:19:52;;;;;;;8.70;2.33;;;9.80;99.90;;;;;;5006581;28;20053;-92
2022/05/12 06:22:20;;;;;;;11.05;2.10;;;9.90;99.90;;;;;;5016320;28;20018;-88
2022/05/12 06:24:47;;;;;;;7.55;1.92;;;9.90;99.90;;;;;;5029390;28;20117;-93
2022/05/12 06:27:14;;;;;;;4.90;1.92;;;10.00;99.90;;;;;;5005239;28;20489;-93
2022/05/12 06:29:44;;;;;;;10.70;3.30;;;10.10;99.90;;;;;;5027083;28;20018;-93
2022/05/12 06:32:10;;;;;;;11.40;2.70;;;10.10;99.90;;;;;;5007215;28;20022;-95
2022/05/12 06:34:37;;;;;;;6.47;2.20;;;10.10;99.90;;;;;;5007347;28;20162;-92
2022/05/12 06:37:04;;;;;;;11.95;2.47;;;10.20;99.90;;;;;;5010152;28;20037;-94
2022/05/12 06:39:30;;;;;;;13.75;2.50;;;10.20;99.90;;;;;;5009209;28;20030;-93
2022/05/12 06:41:56;;;;;;;8.88;2.10;;;10.30;99.90;;;;;;5000189;28;20025;-90
2022/05/12 06:44:22;;;;;;;8.70;2.30;;;10.30;99.90;;;;;;5014129;28;20036;-88
2022/05/12 06:49:22;;;;;;;7.25;2.30;;;10.30;99.90;;;;;;4980026;28;20054;-94
2022/05/12 06:51:48;;;;;;;8.55;2.08;;;10.30;99.90;;;;;;5006247;28;20026;-93
2022/05/12 06:54:15;;;;;;;4.75;1.80;;;10.30;99.90;;;;;;5003055;28;20037;-91
2022/05/12 06:56:44;;;;;;;7.80;1.98;;;10.30;99.90;;;;;;5003409;28;20022;-91
2022/05/12 06:59:09;;;;;;;11.20;2.40;;;10.40;99.90;;;;;;4999825;28;20384;-93
2022/05/12 07:01:36;;;;;;;7.47;1.80;;;10.40;99.90;;;;;;4991045;28;20038;-93
2022/05/12 07:04:02;;;;;;;8.25;2.30;;;10.50;99.90;;;;;;4998918;28;20035;-91
2022/05/12 07:06:28;;;;;;;13.77;2.00;;;10.50;99.90;;;;;;4968905;28;20357;-93
2022/05/12 07:08:54;;;;;;;9.20;1.95;;;10.60;99.90;;;;;;4990826;28;20050;-90
2022/05/12 07:11:19;;;;;;;6.90;1.90;;;10.60;99.90;;;;;;4986325;28;20078;-94
2022/05/12 07:13:45;;;;;;;8.75;2.20;;;10.60;99.90;;;;;;4990894;28;20066;-92
2022/05/12 07:16:12;;;;;;;9.95;2.15;;;10.60;99.90;;;;;;4989346;28;20034;-92
2022/05/12 07:18:38;;;;;;;6.40;1.90;;;10.60;99.90;;;;;;4968096;28;20030;-94
2022/05/12 07:26:40;;;;;;;6.78;2.30;;;10.70;99.90;;;;;;4973941;28;20086;-94
2022/05/12 07:29:11;;;;;;;10.95;2.60;;;10.80;99.90;;;;;;4976598;28;20095;-93
2022/05/12 07:31:37;;;;;;;6.68;2.15;;;10.80;99.90;;;;;;4978850;28;20046;-94
2022/05/12 07:34:03;;;;;;;5.25;2.40;;;10.90;99.90;;;;;;4988874;28;20073;-94
2022/05/12 07:36:41;;;;;;;12.32;3.30;;;11.00;99.90;;;;;;4978814;28;20035;-94
2022/05/12 07:39:07;;;;;;;10.23;3.83;;;11.00;99.90;;;;;;4968553;28;20024;-92
2022/05/12 07:41:34;;;;;;;11.40;3.60;;;11.10;99.90;;;;;;4980561;28;20069;-92
2022/05/12 07:44:00;;;;;;;7.30;3.17;;;11.10;99.90;;;;;;4977428;28;20034;-92
2022/05/12 07:46:30;;;;;;;8.57;3.03;;;11.20;99.90;;;;;;4977489;28;20027;-91
2022/05/12 07:48:57;;;;;;;6.93;3.30;;;11.20;99.90;;;;;;4981291;28;20555;-91
2022/05/12 07:51:23;;;;;;;9.15;3.17;;;11.20;99.90;;;;;;4999931;28;20319;-91
2022/05/12 07:53:50;;;;;;;7.75;2.90;;;11.30;99.90;;;;;;5016708;28;20030;-92
2022/05/12 07:56:20;;;;;;;6.15;3.38;;;11.30;99.90;;;;;;4999622;28;20034;-91
2022/05/12 07:58:47;;;;;;;10.73;4.13;;;11.30;99.90;;;;;;5000282;28;20022;-91
2022/05/12 08:01:14;;;;;;;7.28;3.55;;;11.30;99.90;;;;;;5000650;28;20088;-92
2022/05/12 08:03:40;;;;;;;8.43;3.78;;;11.40;99.90;;;;;;4999725;28;20573;-93
2022/05/12 08:06:07;;;;;;;6.57;4.15;;;11.40;99.90;;;;;;4999631;28;20048;-92
2022/05/12 08:08:34;;;;;;;9.48;4.07;;;11.50;99.90;;;;;;4999039;28;20548;-92
2022/05/12 08:10:59;;;;;;;6.10;4.53;;;11.50;99.90;;;;;;4998971;28;20037;-93
2022/05/12 08:13:25;;;;;;;11.68;4.95;;;11.60;99.90;;;;;;5001113;28;20026;-92
2022/05/12 08:15:53;;;;;;;8.57;4.68;;;11.60;99.90;;;;;;5028216;28;20018;-93
2022/05/12 08:18:21;;;;;;;11.45;5.05;;;11.80;99.90;;;;;;5014265;28;20002;-92
2022/05/12 08:20:47;;;;;;;16.25;4.88;;;11.90;99.90;;;;;;5008209;28;20018;-94
2022/05/12 08:23:14;;;;;;;6.35;4.00;;;11.90;99.90;;;;;;4999307;28;20022;-92
2022/05/12 08:25:41;;;;;;;6.97;3.60;;;12.00;99.90;;;;;;5013512;28;20037;-93
2022/05/12 08:28:07;;;;;;;8.52;3.72;;;12.00;99.90;;;;;;4998659;28;20014;-95
2022/05/12 08:30:33;;;;;;;6.63;4.18;;;12.00;99.90;;;;;;5001060;28;20030;-94
2022/05/12 08:33:00;;;;;;;8.55;3.20;;;12.00;99.90;;;;;;4999926;28;20014;-92
2022/05/12 08:35:26;;;;;;;6.22;2.28;;;12.00;99.90;;;;;;5000857;28;20041;-94
2022/05/12 08:37:53;;;;;;;5.80;2.55;;;12.10;99.90;;;;;;5007739;28;20020;-92
2022/05/12 08:40:32;;;;;;;4.85;3.03;;;12.00;99.90;;;;;;5019608;28;20025;-94
2022/05/12 08:43:24;;;;;;;8.45;3.75;;;12.00;99.90;;;;;;5006482;28;20022;-93
2022/05/12 08:45:52;;;;;;;5.95;2.97;;;11.90;99.90;;;;;;4996885;28;20034;-93
2022/05/12 08:48:19;;;;;;;7.13;2.30;;;12.00;99.90;;;;;;5000028;28;20195;-92
2022/05/12 08:50:50;;;;;;;10.10;2.92;;;12.00;99.90;;;;;;5017605;28;20539;-93
2022/05/12 08:53:22;;;;;;;7.10;2.92;;;11.90;99.90;;;;;;5018250;28;20025;-92
2022/05/12 08:55:56;;;;;;;12.10;2.80;;;11.90;99.90;;;;;;5017665;28;20109;-92
2022/05/12 08:58:33;;;;;;;6.20;3.22;;;11.90;99.90;;;;;;5016203;28;20076;-92
2022/05/12 09:01:14;;;;;;;11.15;3.42;;;11.90;99.90;;;;;;4999270;28;20035;-92
2022/05/12 09:04:08;;;;;;;5.72;3.95;;;11.80;99.90;;;;;;5016974;28;20065;-92
2022/05/12 09:06:54;;;;;;;8.38;3.72;;;11.80;99.90;;;;;;5027058;28;20060;-92
2022/05/12 09:09:29;;;;;;;9.80;3.80;;;11.80;99.90;;;;;;5027097;28;20080;-93
2022/05/12 09:12:22;;;;;;;12.82;4.53;;;11.80;99.90;;;;;;5004590;28;20505;-92
2022/05/12 09:15:26;;;;;;;10.23;4.03;;;11.80;99.90;;;;;;5000713;28;20033;-91
2022/05/12 09:17:56;;;;;;;7.85;3.58;;;11.80;99.90;;;;;;5033107;28;20049;-92
2022/05/12 09:20:25;;;;;;;6.38;3.20;;;11.80;99.90;;;;;;5013400;28;20033;-91
2022/05/12 09:22:51;;;;;;;8.73;3.10;;;11.80;99.90;;;;;;5011647;28;20072;-90
2022/05/12 09:25:39;;;;;;;6.07;3.00;;;11.80;99.90;;;;;;5034443;28;20034;-92
2022/05/12 09:28:28;;;;;;;4.00;2.20;;;11.90;99.90;;;;;;5016033;28;20022;-92
2022/05/12 09:31:13;;;;;;;4.75;2.50;;;11.90;99.90;;;;;;4990840;28;20061;-93
2022/05/12 09:33:39;;;;;;;7.03;2.80;;;11.90;99.90;;;;;;5020154;28;20113;-91
2022/05/12 09:36:08;;;;;;;9.27;3.53;;;11.90;99.90;;;;;;5022275;28;20092;-90
2022/05/12 09:38:43;;;;;;;7.85;3.13;;;12.00;99.90;;;;;;5020336;28;20037;-91
2022/05/12 09:41:16;;;;;;;6.35;3.53;;;12.00;99.90;;;;;;5022221;28;20018;-92
2022/05/12 09:43:42;;;;;;;7.18;2.92;;;12.00;99.90;;;;;;5025432;28;20566;-90
2022/05/12 09:46:17;;;;;;;4.68;3.05;;;12.00;99.90;;;;;;5022689;28;20037;-90
2022/05/12 09:48:47;;;;;;;7.22;3.15;;;12.00;99.90;;;;;;5019168;28;20030;-92
2022/05/12 09:51:25;;;;;;;8.60;2.78;;;12.00;99.90;;;;;;5022031;28;20060;-92
2022/05/12 09:53:54;;;;;;;6.80;2.80;;;12.00;99.90;;;;;;5006270;28;20049;-93
2022/05/12 09:56:35;;;;;;;4.88;2.38;;;12.00;99.90;;;;;;5018156;28;20487;-92
2022/05/12 09:59:21;;;;;;;;;;;12.00;99.90;;;;;;4981322;28;20026;-91
2022/05/12 10:01:55;;;;;;;4.30;2.13;;;12.10;99.90;;;;;;5007462;28;19905;-91
2022/05/12 10:10:22;;;;;;;6.72;3.20;;;12.30;99.90;;;;;;5024542;28;20466;-91
2022/05/12 10:13:19;;;;;;;7.95;2.78;;;12.40;99.90;;;;;;5016018;28;20103;-90
2022/05/12 10:15:46;;;;;;;7.05;3.17;;;12.50;99.90;;;;;;4996291;28;20027;-92
2022/05/12 10:18:35;;;;;;;4.57;2.10;;;12.50;99.90;;;;;;4997390;28;20037;-90
2022/05/12 10:21:13;;;;;;;11.65;2.53;;;12.60;99.90;;;;;;4979973;28;20061;-92
2022/05/12 10:24:03;;;;;;;5.75;2.03;;;12.80;99.90;;;;;;4996088;28;20105;-92
2022/05/12 10:26:59;;;;;;;4.63;1.50;;;12.90;99.90;;;;;;4977753;28;20097;-90
2022/05/12 10:29:40;;;;;;;2.17;1.40;;;12.90;99.90;;;;;;5008734;28;20084;-93
2022/05/12 10:32:32;;;;;;;6.20;1.88;;;13.10;98.70;;;;;;5014319;28;20034;-94
2022/05/12 10:35:16;;;;;;;6.43;2.20;;;13.30;97.30;;;;;;4999219;28;20022;-93
2022/05/12 10:37:52;;;;;;;7.63;2.20;;;13.60;96.70;;;;;;5001298;28;20037;-93
2022/05/12 10:40:43;;;;;;;3.50;1.20;;;13.90;96.30;;;;;;5001926;28;20113;-92
2022/05/12 10:43:27;;;;;;;;;;;14.00;94.50;;;;;;5002013;28;20030;-92
2022/05/12 10:46:23;;;;;;;5.20;1.50;;;14.10;93.40;;;;;;5018502;28;19917;-92
2022/05/12 10:49:07;;;;;;;9.85;2.03;;;14.10;91.30;;;;;;5001117;28;20041;-93
2022/05/12 10:52:00;;;;;;;5.50;1.25;;;14.10;91.10;;;;;;5002165;28;20049;-92
2022/05/12 10:54:41;;;;;;;7.88;1.42;;;14.20;90.10;;;;;;5024930;28;20037;-91
2022/05/12 10:57:54;;;;;;;5.88;1.52;;;14.20;89.40;;;;;;5017783;28;20037;-91
2022/05/12 11:01:27;;;;;;;5.65;1.67;;;14.10;88.50;;;;;;4919658;29;20052;-93
2022/05/12 11:04:14;;;;;;;6.03;1.83;;;14.00;89.10;;;;;;4859182;29;20057;-91
2022/05/12 11:06:45;;;;;;;8.60;1.92;;;14.00;89.30;;;;;;4847634;29;20038;-91
2022/05/12 11:09:19;;;;;;;8.05;2.10;;;14.00;89.20;;;;;;4875647;29;20033;-92
2022/05/12 11:11:50;;;;;;;5.50;1.60;;;14.00;89.00;;;;;;4880276;29;20029;-93
2022/05/12 11:14:19;;;;;;;;;;;14.10;89.30;;;;;;4879210;29;20030;-91
2022/05/12 11:17:04;;;;;;;6.25;1.80;;;14.20;89.50;;;;;;4854139;29;19939;-95
2022/05/12 11:19:30;;;;;;;3.50;1.52;;;14.20;88.80;;;;;;4862892;29;20169;-94
2022/05/12 11:22:14;;;;;;;10.23;2.45;;;14.30;88.60;;;;;;4862851;29;20021;-93
2022/05/12 11:24:59;;;;;;;7.78;1.92;;;14.50;88.80;;;;;;4861026;29;20046;-93
2022/05/12 11:27:50;;;;;;;5.75;2.00;;;14.60;88.40;;;;;;4863240;29;20531;-94
2022/05/12 11:30:30;;;;;;;9.15;1.85;;;14.80;87.00;;;;;;4866128;29;20044;-96
2022/05/12 11:33:38;;;;;;;4.72;1.13;;;15.00;85.60;;;;;;4971856;23;20031;-96
2022/05/12 11:36:11;;;;;;;4.88;1.77;;;15.20;83.60;;;;;;4986039;28;20061;-94
2022/05/12 11:38:40;;;;;;;4.18;1.05;;;15.50;82.60;;;;;;4968538;28;20033;-94
2022/05/12 11:41:08;;;;;;;5.00;1.98;;;15.70;81.20;;;;;;4960653;28;20487;-94
2022/05/12 11:46:31;;;;;;;3.72;1.23;;;15.60;78.30;;;;;;4981922;28;20069;-96
2022/05/12 11:49:19;;;;;;;6.18;1.30;;;15.50;78.00;;;;;;4977333;28;20015;-95
2022/05/12 11:51:56;;;;;;;6.40;2.40;;;15.40;79.00;;;;;;4955107;28;20045;-94
2022/05/12 11:54:40;;;;;;;8.40;2.05;;;15.30;79.40;;;;;;4984814;28;20507;-94
2022/05/12 11:57:32;;;;;;;8.02;2.75;;;15.10;79.60;;;;;;4984384;28;20038;-95
2022/05/12 12:00:00;;;;;;;7.00;1.50;;;15.10;80.30;;;;;;4975614;28;20034;-95
2022/05/12 12:02:32;;;;;;;5.57;1.50;;;15.20;80.50;;;;;;4968168;28;20061;-95
2022/05/12 12:05:00;;;;;;;7.22;1.40;;;15.30;80.30;;;;;;4970611;28;20041;-93
2022/05/12 12:07:32;;;;;;;4.00;1.38;;;15.50;80.00;;;;;;4976601;28;20019;-94
2022/05/12 12:10:23;;;;;;;3.70;1.30;;;15.80;79.10;;;;;;4964618;28;20065;-93
2022/05/12 12:12:52;;;;;;;5.38;1.30;;;16.10;77.30;;;;;;4967159;28;20054;-94
2022/05/12 12:15:29;;;;;;;3.10;1.05;;;16.10;74.70;;;;;;4988082;28;20093;-95
2022/05/12 12:17:56;;;;;;;7.68;1.05;;;16.10;74.30;;;;;;4985240;28;20026;-96
2022/05/12 12:20:24;;;;;;;4.80;1.23;;;15.90;74.70;;;;;;4965428;28;20369;-95
2022/05/12 12:22:52;;;;;;;3.70;1.00;;;15.80;74.80;;;;;;4983456;28;20042;-93
2022/05/12 12:25:38;;;;;;;5.90;1.20;;;15.60;75.00;;;;;;4962856;28;20058;-95
2022/05/12 12:28:06;;;;;;;8.07;1.98;;;15.40;75.00;;;;;;4966022;28;20396;-94
2022/05/12 12:30:34;;;;;;;6.88;1.95;;;15.20;75.70;;;;;;4967290;28;20022;-95
2022/05/12 12:33:11;;;;;;;6.65;1.48;;;15.10;76.30;;;;;;4981001;28;20046;-94
2022/05/12 12:36:07;;;;;;;6.20;1.92;;;15.10;77.00;;;;;;4964211;28;20046;-94
2022/05/12 12:38:45;;;;;;;10.00;2.15;;;15.10;77.00;;;;;;4961249;28;20480;-93
2022/05/12 12:41:19;;;;;;;11.73;2.17;;;15.30;77.10;;;;;;4960046;28;20041;-95
2022/05/12 12:44:14;;;;;;;9.70;1.75;;;15.40;76.30;;;;;;4957774;28;20489;-93
2022/05/12 12:47:07;;;;;;;5.38;1.52;;;15.80;76.00;;;;;;4960041;28;20078;-94
2022/05/12 12:50:03;;;;;;;9.82;1.48;;;16.10;75.10;;;;;;4963244;28;20030;-93
2022/05/12 12:52:28;;;;;;;5.85;0.93;;;16.10;73.20;;;;;;4936998;28;20045;-94
2022/05/12 12:57:48;;;;;;;6.38;1.10;;;16.50;72.90;;;;;;4960415;29;20142;-93
2022/05/12 13:00:25;;;;;;;4.22;0.90;;;16.90;71.60;;;;;;4978490;28;20035;-94
2022/05/12 13:02:58;;;;;;;6.82;1.38;;;17.10;69.80;;;;;;4978909;28;20025;-94
2022/05/12 13:05:24;;;;;;;5.45;1.00;;;17.00;69.20;;;;;;4978345;28;20027;-92
2022/05/12 13:08:24;;;;;;;3.58;1.25;;;16.90;68.20;;;;;;4978482;28;20077;-93
2022/05/12 13:10:55;;;;;;;7.70;1.10;;;16.70;68.60;;;;;;4959834;28;20031;-91
2022/05/12 13:13:20;;;;;;;11.15;1.67;;;16.50;68.90;;;;;;4942536;29;20023;-92
2022/05/12 13:15:46;;;;;;;5.10;1.40;;;16.50;69.00;;;;;;4942362;29;20036;-92
2022/05/12 13:18:43;;;;;;;6.97;1.48;;;16.60;68.80;;;;;;4958363;28;20035;-90
2022/05/12 13:21:23;;;;;;;5.85;1.30;;;16.60;68.10;;;;;;4935559;29;20039;-92
2022/05/12 13:24:04;;;;;;;4.93;1.38;;;16.70;68.10;;;;;;4954545;28;20071;-92
2022/05/12 13:26:31;;;;;;;7.47;1.25;;;16.80;67.70;;;;;;4960633;28;20084;-91
2022/05/12 13:28:58;;;;;;;8.90;1.80;;;16.90;68.10;;;;;;4972009;28;20089;-92
2022/05/12 13:31:31;;;;;;;3.38;0.90;;;16.90;68.30;;;;;;4940548;29;20049;-91
2022/05/12 13:34:12;;;;;;;3.75;1.02;;;17.00;68.00;;;;;;4956789;29;20047;-91
2022/05/12 13:36:41;;;;;;;6.30;0.93;;;17.10;67.50;;;;;;4940106;29;20027;-92
2022/05/12 13:39:08;;;;;;;6.68;1.25;;;17.30;66.00;;;;;;4944966;28;20093;-92